sensor_id;sensor_type;location;lat;lon;timestamp;pressure;altitude;pressure_sealevel;temperature;humidity
70728;BME280;58314;47.722;17.652;2022-09-13T00:01:47;100368.88;;;10.95;100.00
70728;BME280;58314;47.722;17.652;2022-09-13T00:04:48;100366.25;;;10.95;100.00
70728;BME280;58314;47.722;17.652;2022-09-13T00:07:49;100361.97;;;10.92;100.00
70728;BME280;58314;47.722;17.652;2022-09-13T00:10:49;100365.47;;;10.93;100.00
70728;BME280;58314;47.722;17.652;2022-09-13T00:13:51;100365.13;;;10.82;100.00
70728;BME280;58314;47.722;17.652;2022-09-13T00:16:52;100358.13;;;10.81;100.00
70728;BME280;58314;47.722;17.652;2022-09-13T00:19:52;100357.44;;;10.95;100.00
70728;BME280;58314;47.722;17.652;2022-09-13T00:22:53;100357.44;;;10.95;100.00
70728;BME280;58314;47.722;17.652;2022-09-13T00:26:11;100347.19;;;10.88;100.00
70728;BME280;58314;47.722;17.652;2022-09-13T00:29:13;100343.47;;;10.73;100.00
70728;BME280;58314;47.722;17.652;2022-09-13T00:32:13;100341.97;;;10.68;100.00
70728;BME280;58314;47.722;17.652;2022-09-13T00:35:14;100345.34;;;10.71;100.00
70728;BME280;58314;47.722;17.652;2022-09-13T00:38:14;100342.75;;;10.70;100.00
70728;BME280;58314;47.722;17.652;2022-09-13T00:41:18;100345.47;;;10.68;100.00
70728;BME280;58314;47.722;17.652;2022-09-13T00:44:54;100350.91;;;10.65;100.00
70728;BME280;58314;47.722;17.652;2022-09-13T00:48:04;100347.47;;;10.63;100.00
70728;BME280;58314;47.722;17.652;2022-09-13T00:51:07;100344.91;;;10.62;100.00
70728;BME280;58314;47.722;17.652;2022-09-13T00:54:10;100343.47;;;10.54;100.00
70728;BME280;58314;47.722;17.652;2022-09-13T00:57:12;100340.69;;;10.58;100.00
70728;BME280;58314;47.722;17.652;2022-09-13T01:00:15;100338.47;;;10.48;100.00
70728;BME280;58314;47.722;17.652;2022-09-13T01:03:19;100336.97;;;10.43;100.00
70728;BME280;58314;47.722;17.652;2022-09-13T01:06:26;100339.91;;;10.36;100.00
70728;BME280;58314;47.722;17.652;2022-09-13T01:09:34;100336.47;;;10.34;100.00
70728;BME280;58314;47.722;17.652;2022-09-13T01:12:47;100333.03;;;10.32;100.00
70728;BME280;58314;47.722;17.652;2022-09-13T01:15:51;100335.59;;;10.34;100.00
70728;BME280;58314;47.722;17.652;2022-09-13T01:18:52;100332.19;;;10.32;100.00
70728;BME280;58314;47.722;17.652;2022-09-13T01:45:51;100351.50;;;10.13;100.00
70728;BME280;58314;47.722;17.652;2022-09-13T01:48:57;100351.00;;;10.05;100.00
70728;BME280;58314;47.722;17.652;2022-09-13T01:52:01;100353.34;;;10.11;100.00
70728;BME280;58314;47.722;17.652;2022-09-13T01:55:05;100349.16;;;10.07;100.00
70728;BME280;58314;47.722;17.652;2022-09-13T02:01:35;100345.09;;;10.19;100.00
70728;BME280;58314;47.722;17.652;2022-09-13T02:04:42;100333.28;;;10.07;100.00
70728;BME280;58314;47.722;17.652;2022-09-13T02:07:51;100326.72;;;10.16;100.00
70728;BME280;58314;47.722;17.652;2022-09-13T02:11:05;100323.06;;;10.18;100.00
70728;BME280;58314;47.722;17.652;2022-09-13T02:14:12;100314.53;;;10.12;100.00
70728;BME280;58314;47.722;17.652;2022-09-13T02:17:17;100325.28;;;10.09;100.00
70728;BME280;58314;47.722;17.652;2022-09-13T02:20:27;100322.78;;;10.06;100.00
70728;BME280;58314;47.722;17.652;2022-09-13T02:23:54;100323.75;;;10.03;100.00
70728;BME280;58314;47.722;17.652;2022-09-13T02:26:58;100317.56;;;10.04;100.00
70728;BME280;58314;47.722;17.652;2022-09-13T02:30:06;100316.13;;;9.97;100.00
70728;BME280;58314;47.722;17.652;2022-09-13T02:33:23;100314.31;;;9.97;100.00
70728;BME280;58314;47.722;17.652;2022-09-13T02:36:29;100310.19;;;9.92;100.00
70728;BME280;58314;47.722;17.652;2022-09-13T02:39:32;100306.88;;;9.87;100.00
70728;BME280;58314;47.722;17.652;2022-09-13T02:42:39;100313.16;;;9.84;100.00
70728;BME280;58314;47.722;17.652;2022-09-13T02:45:56;100310.72;;;9.79;100.00
70728;BME280;58314;47.722;17.652;2022-09-13T02:52:21;100306.59;;;9.74;100.00
70728;BME280;58314;47.722;17.652;2022-09-13T02:58:49;100314.13;;;9.63;100.00
70728;BME280;58314;47.722;17.652;2022-09-13T03:01:57;100306.44;;;9.56;100.00
70728;BME280;58314;47.722;17.652;2022-09-13T03:05:00;100308.16;;;9.57;100.00
70728;BME280;58314;47.722;17.652;2022-09-13T03:08:01;100309.84;;;9.60;100.00
70728;BME280;58314;47.722;17.652;2022-09-13T03:11:09;100311.16;;;9.50;100.00
70728;BME280;58314;47.722;17.652;2022-09-13T03:21:25;100297.94;;;9.29;100.00
70728;BME280;58314;47.722;17.652;2022-09-13T03:24:42;100297.94;;;9.29;100.00
70728;BME280;58314;47.722;17.652;2022-09-13T03:31:08;100294.38;;;9.30;100.00
70728;BME280;58314;47.722;17.652;2022-09-13T03:40:52;100288.13;;;9.33;100.00
70728;BME280;58314;47.722;17.652;2022-09-13T03:43:58;100282.72;;;9.36;100.00
70728;BME280;58314;47.722;17.652;2022-09-13T03:47:00;100280.19;;;9.33;100.00
70728;BME280;58314;47.722;17.652;2022-09-13T03:50:05;100270.41;;;9.35;100.00
70728;BME280;58314;47.722;17.652;2022-09-13T03:53:09;100274.84;;;9.34;100.00
70728;BME280;58314;47.722;17.652;2022-09-13T03:56:15;100267.00;;;9.33;100.00
70728;BME280;58314;47.722;17.652;2022-09-13T03:59:15;100271.53;;;9.29;100.00
70728;BME280;58314;47.722;17.652;2022-09-13T04:02:18;100279.59;;;9.26;100.00
70728;BME280;58314;47.722;17.652;2022-09-13T04:05:19;100265.53;;;9.26;100.00
70728;BME280;58314;47.722;17.652;2022-09-13T04:08:19;100262.13;;;9.23;100.00
70728;BME280;58314;47.722;17.652;2022-09-13T04:11:21;100255.78;;;9.28;100.00
70728;BME280;58314;47.722;17.652;2022-09-13T04:14:22;100260.03;;;9.30;100.00
70728;BME280;58314;47.722;17.652;2022-09-13T04:17:25;100257.28;;;9.33;100.00
70728;BME280;58314;47.722;17.652;2022-09-13T04:20:26;100266.81;;;9.37;100.00
70728;BME280;58314;47.722;17.652;2022-09-13T04:23:29;100262.91;;;9.26;100.00
70728;BME280;58314;47.722;17.652;2022-09-13T04:26:30;100258.59;;;9.23;100.00
70728;BME280;58314;47.722;17.652;2022-09-13T04:29:31;100269.56;;;9.14;100.00
70728;BME280;58314;47.722;17.652;2022-09-13T04:32:31;100263.63;;;9.09;100.00
70728;BME280;58314;47.722;17.652;2022-09-13T04:35:33;100266.97;;;9.12;100.00
70728;BME280;58314;47.722;17.652;2022-09-13T04:38:33;100260.25;;;9.05;100.00
70728;BME280;58314;47.722;17.652;2022-09-13T04:41:34;100267.22;;;8.85;100.00
70728;BME280;58314;47.722;17.652;2022-09-13T04:44:35;100276.78;;;8.88;100.00
70728;BME280;58314;47.722;17.652;2022-09-13T04:47:36;100270.25;;;8.97;100.00
70728;BME280;58314;47.722;17.652;2022-09-13T04:50:37;100270.25;;;8.97;100.00
70728;BME280;58314;47.722;17.652;2022-09-13T04:53:38;100277.16;;;9.01;100.00
70728;BME280;58314;47.722;17.652;2022-09-13T04:56:39;100279.69;;;9.02;100.00
70728;BME280;58314;47.722;17.652;2022-09-13T04:59:39;100277.88;;;9.04;100.00
70728;BME280;58314;47.722;17.652;2022-09-13T05:02:40;100284.72;;;9.09;100.00
70728;BME280;58314;47.722;17.652;2022-09-13T05:05:41;100280.06;;;9.15;100.00
70728;BME280;58314;47.722;17.652;2022-09-13T05:08:41;100279.72;;;9.23;100.00
70728;BME280;58314;47.722;17.652;2022-09-13T05:11:42;100279.47;;;9.29;100.00
70728;BME280;58314;47.722;17.652;2022-09-13T05:14:43;100278.47;;;9.32;100.00
70728;BME280;58314;47.722;17.652;2022-09-13T05:17:44;100280.31;;;9.30;100.00
70728;BME280;58314;47.722;17.652;2022-09-13T05:20:44;100278.22;;;9.38;100.00
70728;BME280;58314;47.722;17.652;2022-09-13T05:23:48;100286.44;;;9.51;100.00
70728;BME280;58314;47.722;17.652;2022-09-13T05:26:49;100290.16;;;9.67;100.00
70728;BME280;58314;47.722;17.652;2022-09-13T05:29:49;100296.09;;;9.72;100.00
70728;BME280;58314;47.722;17.652;2022-09-13T05:32:50;100297.41;;;9.83;100.00
70728;BME280;58314;47.722;17.652;2022-09-13T05:35:50;100304.75;;;9.95;100.00
70728;BME280;58314;47.722;17.652;2022-09-13T05:38:54;100307.25;;;9.98;100.00
70728;BME280;58314;47.722;17.652;2022-09-13T05:41:55;100303.91;;;10.13;100.00
70728;BME280;58314;47.722;17.652;2022-09-13T05:44:56;100299.78;;;10.27;100.00
70728;BME280;58314;47.722;17.652;2022-09-13T05:47:57;100285.38;;;10.34;100.00
70728;BME280;58314;47.722;17.652;2022-09-13T05:51:19;100288.50;;;10.42;100.00
70728;BME280;58314;47.722;17.652;2022-09-13T05:54:20;100283.84;;;10.66;100.00
70728;BME280;58314;47.722;17.652;2022-09-13T05:57:20;100284.69;;;10.67;100.00
70728;BME280;58314;47.722;17.652;2022-09-13T06:00:21;100280.19;;;10.86;100.00
70728;BME280;58314;47.722;17.652;2022-09-13T06:03:22;100279.50;;;10.83;100.00
70728;BME280;58314;47.722;17.652;2022-09-13T06:06:24;100288.31;;;10.83;100.00
70728;BME280;58314;47.722;17.652;2022-09-13T06:09:24;100290.78;;;10.86;100.00
70728;BME280;58314;47.722;17.652;2022-09-13T06:12:25;100280.13;;;10.88;100.00
70728;BME280;58314;47.722;17.652;2022-09-13T06:15:26;100286.81;;;10.95;100.00
70728;BME280;58314;47.722;17.652;2022-09-13T06:18:26;100286.59;;;11.00;100.00
70728;BME280;58314;47.722;17.652;2022-09-13T06:21:27;100286.94;;;11.11;100.00
70728;BME280;58314;47.722;17.652;2022-09-13T06:24:28;100288.16;;;11.21;100.00
70728;BME280;58314;47.722;17.652;2022-09-13T06:27:28;100283.03;;;11.36;100.00
70728;BME280;58314;47.722;17.652;2022-09-13T06:30:30;100289.31;;;11.50;100.00
70728;BME280;58314;47.722;17.652;2022-09-13T06:33:31;100283.22;;;11.66;100.00
70728;BME280;58314;47.722;17.652;2022-09-13T06:36:33;100284.22;;;11.81;100.00
70728;BME280;58314;47.722;17.652;2022-09-13T06:39:33;100278.81;;;12.00;100.00
70728;BME280;58314;47.722;17.652;2022-09-13T06:42:35;100283.00;;;12.20;100.00
70728;BME280;58314;47.722;17.652;2022-09-13T06:45:36;100287.22;;;12.40;100.00
70728;BME280;58314;47.722;17.652;2022-09-13T06:48:39;100283.03;;;12.68;100.00
70728;BME280;58314;47.722;17.652;2022-09-13T06:51:39;100281.66;;;13.07;100.00
70728;BME280;58314;47.722;17.652;2022-09-13T06:54:40;100283.13;;;13.57;100.00
70728;BME280;58314;47.722;17.652;2022-09-13T06:57:41;100279.81;;;14.11;100.00
70728;BME280;58314;47.722;17.652;2022-09-13T07:00:41;100282.03;;;14.46;94.51
70728;BME280;58314;47.722;17.652;2022-09-13T07:03:44;100281.44;;;14.97;92.27
70728;BME280;58314;47.722;17.652;2022-09-13T07:06:47;100283.81;;;15.27;90.01
70728;BME280;58314;47.722;17.652;2022-09-13T07:09:48;100287.38;;;15.40;87.81
70728;BME280;58314;47.722;17.652;2022-09-13T07:12:49;100274.34;;;15.74;87.79
70728;BME280;58314;47.722;17.652;2022-09-13T07:15:50;100277.69;;;15.91;86.14
70728;BME280;58314;47.722;17.652;2022-09-13T07:18:55;100283.13;;;16.02;84.95
70728;BME280;58314;47.722;17.652;2022-09-13T07:21:56;100291.38;;;15.99;83.89
70728;BME280;58314;47.722;17.652;2022-09-13T07:24:56;100278.03;;;15.99;83.83
70728;BME280;58314;47.722;17.652;2022-09-13T07:27:57;100289.19;;;16.17;79.95
70728;BME280;58314;47.722;17.652;2022-09-13T07:31:16;100288.63;;;16.25;79.42
70728;BME280;58314;47.722;17.652;2022-09-13T07:34:19;100298.88;;;16.31;75.91
70728;BME280;58314;47.722;17.652;2022-09-13T07:37:20;100300.56;;;16.45;78.93
70728;BME280;58314;47.722;17.652;2022-09-13T07:40:21;100290.41;;;16.50;77.54
70728;BME280;58314;47.722;17.652;2022-09-13T07:43:21;100290.31;;;16.75;75.54
70728;BME280;58314;47.722;17.652;2022-09-13T07:46:26;100290.19;;;16.77;75.28
70728;BME280;58314;47.722;17.652;2022-09-13T07:49:27;100290.63;;;17.19;72.27
70728;BME280;58314;47.722;17.652;2022-09-13T07:52:28;100290.00;;;17.51;70.87
70728;BME280;58314;47.722;17.652;2022-09-13T07:55:29;100286.50;;;17.73;69.81
70728;BME280;58314;47.722;17.652;2022-09-13T07:58:35;100286.97;;;17.67;69.41
70728;BME280;58314;47.722;17.652;2022-09-13T08:01:39;100278.66;;;18.05;67.11
70728;BME280;58314;47.722;17.652;2022-09-13T08:04:40;100286.75;;;18.49;64.42
70728;BME280;58314;47.722;17.652;2022-09-13T08:07:40;100286.25;;;18.55;65.19
70728;BME280;58314;47.722;17.652;2022-09-13T08:10:41;100278.81;;;18.59;64.57
70728;BME280;58314;47.722;17.652;2022-09-13T08:13:42;100288.53;;;18.83;62.19
70728;BME280;58314;47.722;17.652;2022-09-13T08:16:42;100284.56;;;18.98;61.25
70728;BME280;58314;47.722;17.652;2022-09-13T08:19:43;100286.78;;;18.93;59.22
70728;BME280;58314;47.722;17.652;2022-09-13T08:22:43;100296.72;;;19.02;59.06
70728;BME280;58314;47.722;17.652;2022-09-13T08:25:44;100286.56;;;18.85;61.59
70728;BME280;58314;47.722;17.652;2022-09-13T08:28:44;100275.41;;;19.00;59.54
70728;BME280;58314;47.722;17.652;2022-09-13T08:31:45;100278.38;;;19.18;57.72
70728;BME280;58314;47.722;17.652;2022-09-13T08:34:46;100281.88;;;19.51;59.33
70728;BME280;58314;47.722;17.652;2022-09-13T08:37:47;100275.16;;;19.88;57.35
70728;BME280;58314;47.722;17.652;2022-09-13T08:40:54;100267.38;;;20.76;54.03
70728;BME280;58314;47.722;17.652;2022-09-13T08:47:26;100278.69;;;20.19;55.71
70728;BME280;58314;47.722;17.652;2022-09-13T08:50:33;100278.59;;;20.00;56.35
70728;BME280;58314;47.722;17.652;2022-09-13T08:53:44;100269.88;;;20.07;54.64
70728;BME280;58314;47.722;17.652;2022-09-13T08:57:02;100273.50;;;19.97;55.71
70728;BME280;58314;47.722;17.652;2022-09-13T09:00:43;100264.28;;;20.30;53.91
70728;BME280;58314;47.722;17.652;2022-09-13T09:07:15;100263.22;;;21.40;51.72
70728;BME280;58314;47.722;17.652;2022-09-13T09:10:21;100254.91;;;21.53;52.48
70728;BME280;58314;47.722;17.652;2022-09-13T09:16:46;100251.13;;;20.87;51.96
70728;BME280;58314;47.722;17.652;2022-09-13T09:19:51;100257.59;;;20.65;53.02
70728;BME280;58314;47.722;17.652;2022-09-13T09:22:55;100250.13;;;21.08;51.70
70728;BME280;58314;47.722;17.652;2022-09-13T09:26:20;100256.47;;;21.16;52.33
70728;BME280;58314;47.722;17.652;2022-09-13T09:29:22;100251.34;;;21.33;52.55
70728;BME280;58314;47.722;17.652;2022-09-13T09:39:51;100234.41;;;20.83;54.38
70728;BME280;58314;47.722;17.652;2022-09-13T09:42:52;100234.91;;;21.36;54.67
70728;BME280;58314;47.722;17.652;2022-09-13T09:45:54;100231.78;;;21.60;52.80
70728;BME280;58314;47.722;17.652;2022-09-13T09:49:08;100233.31;;;21.62;52.02
70728;BME280;58314;47.722;17.652;2022-09-13T09:53:38;100219.88;;;21.90;51.64
70728;BME280;58314;47.722;17.652;2022-09-13T09:56:25;100203.94;;;21.79;52.00
70728;BME280;58314;47.722;17.652;2022-09-13T09:59:31;100208.13;;;22.19;51.45
70728;BME280;58314;47.722;17.652;2022-09-13T10:02:34;100205.97;;;22.23;48.76
70728;BME280;58314;47.722;17.652;2022-09-13T10:05:36;100206.75;;;23.05;48.38
70728;BME280;58314;47.722;17.652;2022-09-13T10:08:39;100200.38;;;22.88;47.85
70728;BME280;58314;47.722;17.652;2022-09-13T10:11:52;100198.81;;;23.47;46.16
70728;BME280;58314;47.722;17.652;2022-09-13T10:18:16;100189.16;;;24.05;45.50
70728;BME280;58314;47.722;17.652;2022-09-13T10:24:20;100197.72;;;23.32;48.65
70728;BME280;58314;47.722;17.652;2022-09-13T10:27:37;100201.84;;;22.82;45.92
70728;BME280;58314;47.722;17.652;2022-09-13T10:30:48;100192.56;;;22.59;43.91
70728;BME280;58314;47.722;17.652;2022-09-13T10:34:25;100190.88;;;23.20;44.44
70728;BME280;58314;47.722;17.652;2022-09-13T10:37:28;100189.22;;;23.53;43.67
70728;BME280;58314;47.722;17.652;2022-09-13T10:40:34;100184.22;;;24.68;42.75
70728;BME280;58314;47.722;17.652;2022-09-13T10:43:38;100187.19;;;24.40;41.32
70728;BME280;58314;47.722;17.652;2022-09-13T10:46:39;100175.94;;;25.83;39.84
70728;BME280;58314;47.722;17.652;2022-09-13T10:49:45;100179.50;;;26.23;38.51
70728;BME280;58314;47.722;17.652;2022-09-13T10:52:54;100166.59;;;26.25;36.38
70728;BME280;58314;47.722;17.652;2022-09-13T10:55:55;100166.53;;;26.65;38.78
70728;BME280;58314;47.722;17.652;2022-09-13T10:59:30;100164.66;;;26.65;37.34
70728;BME280;58314;47.722;17.652;2022-09-13T11:06:13;100146.00;;;28.20;35.14
70728;BME280;58314;47.722;17.652;2022-09-13T11:39:29;100130.41;;;28.28;34.23
70728;BME280;58314;47.722;17.652;2022-09-13T11:56:35;100104.69;;;30.87;31.20
70728;BME280;58314;47.722;17.652;2022-09-13T11:59:45;100100.81;;;31.42;31.28
70728;BME280;58314;47.722;17.652;2022-09-13T12:02:55;100103.63;;;30.62;31.69
70728;BME280;58314;47.722;17.652;2022-09-13T12:06:01;100095.78;;;30.18;32.56
70728;BME280;58314;47.722;17.652;2022-09-13T12:09:21;100088.91;;;30.69;30.68
70728;BME280;58314;47.722;17.652;2022-09-13T12:12:27;100089.50;;;32.22;28.61
70728;BME280;58314;47.722;17.652;2022-09-13T12:15:40;100095.00;;;30.85;30.38
70728;BME280;58314;47.722;17.652;2022-09-13T12:18:51;100091.72;;;29.04;32.93
70728;BME280;58314;47.722;17.652;2022-09-13T12:21:55;100083.66;;;30.88;30.72
70728;BME280;58314;47.722;17.652;2022-09-13T12:24:59;100086.78;;;31.83;29.46
70728;BME280;58314;47.722;17.652;2022-09-13T12:28:18;100085.59;;;30.94;29.47
70728;BME280;58314;47.722;17.652;2022-09-13T12:31:24;100087.00;;;30.83;30.50
70728;BME280;58314;47.722;17.652;2022-09-13T12:44:40;100079.22;;;30.20;31.25
70728;BME280;58314;47.722;17.652;2022-09-13T13:01:26;100054.69;;;30.80;30.88
70728;BME280;58314;47.722;17.652;2022-09-13T13:04:33;100046.84;;;31.76;28.64
70728;BME280;58314;47.722;17.652;2022-09-13T13:07:35;100046.13;;;32.76;27.13
70728;BME280;58314;47.722;17.652;2022-09-13T13:10:37;100037.63;;;31.11;28.44
70728;BME280;58314;47.722;17.652;2022-09-13T13:13:39;100037.44;;;31.06;29.60
70728;BME280;58314;47.722;17.652;2022-09-13T13:16:40;100033.16;;;31.30;29.34
70728;BME280;58314;47.722;17.652;2022-09-13T13:19:43;100040.16;;;31.00;29.74
70728;BME280;58314;47.722;17.652;2022-09-13T13:32:16;100011.78;;;29.25;31.73
70728;BME280;58314;47.722;17.652;2022-09-13T13:35:29;100012.66;;;30.08;31.16
70728;BME280;58314;47.722;17.652;2022-09-13T13:38:40;100011.63;;;30.09;31.48
70728;BME280;58314;47.722;17.652;2022-09-13T13:41:54;100021.09;;;28.68;32.78
70728;BME280;58314;47.722;17.652;2022-09-13T13:45:03;100018.88;;;27.04;36.08
70728;BME280;58314;47.722;17.652;2022-09-13T13:48:09;100014.00;;;27.14;35.18
70728;BME280;58314;47.722;17.652;2022-09-13T13:54:32;100015.66;;;26.85;35.72
70728;BME280;58314;47.722;17.652;2022-09-13T14:01:01;100009.06;;;25.58;37.99
70728;BME280;58314;47.722;17.652;2022-09-13T14:21:23;99998.03;;;24.72;41.80
70728;BME280;58314;47.722;17.652;2022-09-13T14:24:26;100005.97;;;24.81;40.51
70728;BME280;58314;47.722;17.652;2022-09-13T14:27:33;100004.19;;;24.24;41.11
70728;BME280;58314;47.722;17.652;2022-09-13T14:30:36;100003.81;;;24.44;41.77
70728;BME280;58314;47.722;17.652;2022-09-13T14:33:37;99991.47;;;24.58;41.01
70728;BME280;58314;47.722;17.652;2022-09-13T14:36:50;99982.91;;;25.02;41.36
70728;BME280;58314;47.722;17.652;2022-09-13T14:39:56;99977.38;;;24.87;41.33
70728;BME280;58314;47.722;17.652;2022-09-13T14:42:57;99968.00;;;25.06;41.31
70728;BME280;58314;47.722;17.652;2022-09-13T14:46:08;99966.22;;;25.30;40.65
70728;BME280;58314;47.722;17.652;2022-09-13T14:49:23;99966.69;;;25.65;39.78
70728;BME280;58314;47.722;17.652;2022-09-13T14:52:31;99965.22;;;26.61;37.78
70728;BME280;58314;47.722;17.652;2022-09-13T14:55:46;99953.63;;;28.42;33.16
70728;BME280;58314;47.722;17.652;2022-09-13T14:58:53;99953.00;;;28.11;33.63
70728;BME280;58314;47.722;17.652;2022-09-13T15:01:56;99951.53;;;27.29;35.94
70728;BME280;58314;47.722;17.652;2022-09-13T15:04:59;99946.22;;;26.91;37.17
70728;BME280;58314;47.722;17.652;2022-09-13T15:08:43;99942.53;;;27.14;37.08
70728;BME280;58314;47.722;17.652;2022-09-13T15:15:20;99949.09;;;26.30;37.81
70728;BME280;58314;47.722;17.652;2022-09-13T15:18:30;99946.28;;;25.77;39.13
70728;BME280;58314;47.722;17.652;2022-09-13T15:21:34;99948.22;;;26.29;37.63
70728;BME280;58314;47.722;17.652;2022-09-13T15:24:35;99949.66;;;25.56;39.47
70728;BME280;58314;47.722;17.652;2022-09-13T15:27:44;99950.25;;;25.04;39.94
70728;BME280;58314;47.722;17.652;2022-09-13T15:30:46;99954.06;;;24.78;41.59
70728;BME280;58314;47.722;17.652;2022-09-13T15:33:47;99946.63;;;25.74;39.98
70728;BME280;58314;47.722;17.652;2022-09-13T15:37:01;99945.94;;;25.80;40.16
70728;BME280;58314;47.722;17.652;2022-09-13T15:40:20;99953.66;;;24.97;41.60
70728;BME280;58314;47.722;17.652;2022-09-13T15:43:20;99940.47;;;25.57;40.40
70728;BME280;58314;47.722;17.652;2022-09-13T15:46:21;99942.66;;;25.62;41.04
70728;BME280;58314;47.722;17.652;2022-09-13T15:49:24;99933.94;;;25.51;40.57
70728;BME280;58314;47.722;17.652;2022-09-13T15:52:26;99929.63;;;25.34;40.99
70728;BME280;58314;47.722;17.652;2022-09-13T15:55:27;99926.41;;;24.99;41.77
70728;BME280;58314;47.722;17.652;2022-09-13T15:58:30;99918.44;;;25.06;42.04
70728;BME280;58314;47.722;17.652;2022-09-13T16:01:31;99926.25;;;24.44;42.68
70728;BME280;58314;47.722;17.652;2022-09-13T16:04:32;99917.31;;;24.28;43.07
70728;BME280;58314;47.722;17.652;2022-09-13T16:07:33;99918.53;;;24.00;44.51
70728;BME280;58314;47.722;17.652;2022-09-13T16:10:34;99915.66;;;23.94;44.56
70728;BME280;58314;47.722;17.652;2022-09-13T16:13:35;99919.72;;;23.73;44.82
70728;BME280;58314;47.722;17.652;2022-09-13T16:16:36;99925.78;;;23.50;45.67
70728;BME280;58314;47.722;17.652;2022-09-13T16:19:36;99930.69;;;23.04;47.06
70728;BME280;58314;47.722;17.652;2022-09-13T16:22:37;99925.75;;;23.00;48.57
70728;BME280;58314;47.722;17.652;2022-09-13T16:25:38;99927.41;;;22.50;48.42
70728;BME280;58314;47.722;17.652;2022-09-13T16:28:39;99916.38;;;22.17;49.24
70728;BME280;58314;47.722;17.652;2022-09-13T16:31:41;99918.94;;;22.45;48.64
70728;BME280;58314;47.722;17.652;2022-09-13T16:34:41;99914.66;;;22.34;49.44
70728;BME280;58314;47.722;17.652;2022-09-13T16:37:42;99913.41;;;22.02;50.63
70728;BME280;58314;47.722;17.652;2022-09-13T16:40:43;99908.13;;;21.74;51.30
70728;BME280;58314;47.722;17.652;2022-09-13T16:43:44;99908.06;;;21.66;50.76
70728;BME280;58314;47.722;17.652;2022-09-13T16:46:45;99919.69;;;21.67;51.73
70728;BME280;58314;47.722;17.652;2022-09-13T16:49:46;99913.84;;;21.53;52.28
70728;BME280;58314;47.722;17.652;2022-09-13T16:52:47;99925.56;;;21.34;53.38
70728;BME280;58314;47.722;17.652;2022-09-13T16:55:47;99911.63;;;21.21;53.32
70728;BME280;58314;47.722;17.652;2022-09-13T16:58:49;99912.84;;;21.09;55.15
70728;BME280;58314;47.722;17.652;2022-09-13T17:01:50;99919.13;;;20.99;55.52
70728;BME280;58314;47.722;17.652;2022-09-13T17:04:52;99916.00;;;20.76;57.59
70728;BME280;58314;47.722;17.652;2022-09-13T17:07:52;99912.91;;;20.71;56.44
70728;BME280;58314;47.722;17.652;2022-09-13T17:10:53;99908.84;;;20.57;57.84
70728;BME280;58314;47.722;17.652;2022-09-13T17:13:54;99914.50;;;20.54;57.46
70728;BME280;58314;47.722;17.652;2022-09-13T17:16:56;99913.69;;;20.44;58.36
70728;BME280;58314;47.722;17.652;2022-09-13T17:19:57;99915.69;;;20.42;58.46
70728;BME280;58314;47.722;17.652;2022-09-13T17:22:58;99907.38;;;20.25;60.34
70728;BME280;58314;47.722;17.652;2022-09-13T17:25:59;99911.63;;;20.18;61.24
70728;BME280;58314;47.722;17.652;2022-09-13T17:29:00;99909.09;;;20.17;61.77
70728;BME280;58314;47.722;17.652;2022-09-13T17:32:03;99893.44;;;20.12;62.91
70728;BME280;58314;47.722;17.652;2022-09-13T17:35:05;99907.56;;;20.04;62.43
70728;BME280;58314;47.722;17.652;2022-09-13T17:38:07;99902.19;;;20.04;63.49
70728;BME280;58314;47.722;17.652;2022-09-13T17:41:10;99909.84;;;19.99;63.38
70728;BME280;58314;47.722;17.652;2022-09-13T17:44:11;99907.88;;;19.91;63.80
70728;BME280;58314;47.722;17.652;2022-09-13T17:47:12;99908.31;;;19.87;64.86
70728;BME280;58314;47.722;17.652;2022-09-13T17:50:12;99912.00;;;19.76;66.39
70728;BME280;58314;47.722;17.652;2022-09-13T17:53:13;99914.78;;;19.65;65.80
70728;BME280;58314;47.722;17.652;2022-09-13T17:56:22;99910.25;;;19.55;66.82
70728;BME280;58314;47.722;17.652;2022-09-13T17:59:25;99913.75;;;19.27;68.62
70728;BME280;58314;47.722;17.652;2022-09-13T18:02:27;99925.06;;;19.21;69.94
70728;BME280;58314;47.722;17.652;2022-09-13T18:05:28;99917.56;;;19.14;70.43
70728;BME280;58314;47.722;17.652;2022-09-13T18:08:31;99920.22;;;19.14;70.78
70728;BME280;58314;47.722;17.652;2022-09-13T18:11:32;99924.19;;;19.10;70.66
70728;BME280;58314;47.722;17.652;2022-09-13T18:14:33;99924.06;;;19.22;68.69
70728;BME280;58314;47.722;17.652;2022-09-13T18:17:33;99928.59;;;19.31;67.58
70728;BME280;58314;47.722;17.652;2022-09-13T18:20:34;99935.81;;;19.40;67.31
70728;BME280;58314;47.722;17.652;2022-09-13T18:23:35;99925.91;;;19.41;67.63
70728;BME280;58314;47.722;17.652;2022-09-13T18:26:35;99925.25;;;19.48;67.22
70728;BME280;58314;47.722;17.652;2022-09-13T18:29:37;99927.75;;;19.40;67.95
70728;BME280;58314;47.722;17.652;2022-09-13T18:32:37;99929.03;;;19.36;67.60
70728;BME280;58314;47.722;17.652;2022-09-13T18:35:38;99923.09;;;19.32;68.62
70728;BME280;58314;47.722;17.652;2022-09-13T18:38:41;99921.53;;;19.30;68.71
70728;BME280;58314;47.722;17.652;2022-09-13T18:41:42;99914.75;;;19.26;68.88
70728;BME280;58314;47.722;17.652;2022-09-13T18:44:44;99931.28;;;19.31;68.70
70728;BME280;58314;47.722;17.652;2022-09-13T18:47:45;99922.94;;;19.24;68.73
70728;BME280;58314;47.722;17.652;2022-09-13T18:50:45;99917.88;;;19.31;69.23
70728;BME280;58314;47.722;17.652;2022-09-13T18:53:47;99919.28;;;19.35;68.77
70728;BME280;58314;47.722;17.652;2022-09-13T18:56:48;99916.59;;;19.35;68.74